createdAt,value
2019-04-21T00:00:39.734Z,100769.52
2019-04-21T00:03:19.402Z,100762.69
2019-04-21T00:06:01.802Z,100762.30
2019-04-21T00:11:06.243Z,100757.95
2019-04-21T00:13:28.090Z,100748.79
2019-04-21T00:15:48.828Z,100753.13
2019-04-21T00:18:40.854Z,100756.78
2019-04-21T00:21:13.346Z,100756.97
2019-04-21T00:23:54.086Z,100755.38
2019-04-21T00:26:23.809Z,100752.69
2019-04-21T00:29:03.943Z,100756.31
2019-04-21T00:31:27.291Z,100750.77
2019-04-21T00:33:41.283Z,100752.40
2019-04-21T00:36:14.873Z,100751.66
2019-04-21T00:39:09.598Z,100744.67
2019-04-21T00:41:29.410Z,100740.81
2019-04-21T00:43:59.621Z,100738.19
2019-04-21T00:46:30.772Z,100738.37
2019-04-21T00:49:02.074Z,100734.84
2019-04-21T00:51:49.833Z,100744.01
2019-04-21T00:54:13.465Z,100732.88
2019-04-21T00:56:45.974Z,100734.88
2019-04-21T00:59:16.285Z,100739.13
2019-04-21T01:01:38.036Z,100730.19
2019-04-21T01:04:09.957Z,100730.56
2019-04-21T01:06:43.714Z,100732.08
2019-04-21T01:09:08.399Z,100728.55
2019-04-21T01:11:47.288Z,100725.72
2019-04-21T01:14:27.928Z,100721.45
2019-04-21T01:16:48.602Z,100731.09
2019-04-21T01:19:18.305Z,100700.94
2019-04-21T01:21:26.940Z,100722.35
2019-04-21T01:24:07.744Z,100721.55
2019-04-21T01:26:40.969Z,100717.36
2019-04-21T01:29:15.707Z,100710.48
2019-04-21T01:31:45.972Z,100710.70
2019-04-21T01:34:20.823Z,100714.50
2019-04-21T01:36:46.079Z,100709.36
2019-04-21T01:39:30.830Z,100714.81
2019-04-21T01:41:57.406Z,100706.30
2019-04-21T01:44:31.286Z,100705.04
2019-04-21T01:46:52.027Z,100705.92
2019-04-21T01:49:19.184Z,100704.51
2019-04-21T01:52:08.896Z,100709.15
2019-04-21T01:54:48.127Z,100695.69
2019-04-21T01:57:23.769Z,100699.84
2019-04-21T01:59:51.207Z,100699.98
2019-04-21T02:02:30.757Z,100693.47
2019-04-21T02:05:07.076Z,100696.31
2019-04-21T02:07:27.455Z,100692.26
2019-04-21T02:10:05.090Z,100689.50
2019-04-21T02:12:31.823Z,100685.25
2019-04-21T02:15:12.219Z,100692.83
2019-04-21T02:17:35.452Z,100685.97
2019-04-21T02:20:01.693Z,100692.41
2019-04-21T02:22:46.457Z,100689.77
2019-04-21T02:25:26.142Z,100690.41
2019-04-21T02:27:47.435Z,100684.29
2019-04-21T02:30:18.309Z,100683.19
2019-04-21T02:33:02.371Z,100680.34
2019-04-21T02:35:30.412Z,100676.16
2019-04-21T02:45:30.443Z,100658.16
2019-04-21T02:50:28.354Z,100650.20
2019-04-21T03:00:36.534Z,100642.77
2019-04-21T03:03:19.914Z,100641.47
2019-04-21T03:05:58.689Z,100636.70
2019-04-21T03:08:37.321Z,100630.52
2019-04-21T03:11:04.892Z,100630.74
2019-04-21T03:13:31.459Z,100632.59
2019-04-21T03:18:36.400Z,100625.47
2019-04-21T03:21:07.473Z,100624.44
2019-04-21T03:23:41.744Z,100623.83
2019-04-21T03:26:14.381Z,100615.16
2019-04-21T03:36:38.245Z,100607.89
2019-04-21T03:38:37.485Z,100602.41
2019-04-21T03:46:08.312Z,100600.09
2019-04-21T03:48:40.676Z,100594.77
2019-04-21T03:51:15.892Z,100597.77
2019-04-21T03:53:38.155Z,100596.78
2019-04-21T03:56:25.427Z,100595.95
2019-04-21T04:01:22.148Z,100595.47
2019-04-21T04:04:30.574Z,100599.78
2019-04-21T04:07:11.045Z,100598.95
2019-04-21T04:09:54.026Z,100599.97
2019-04-21T04:12:19.283Z,100601.30
2019-04-21T04:15:02.394Z,100600.81
2019-04-21T04:17:16.980Z,100599.30
2019-04-21T04:30:04.285Z,100597.78
2019-04-21T04:32:28.401Z,100599.13
2019-04-21T04:35:03.266Z,100605.12
2019-04-21T04:37:32.645Z,100605.96
2019-04-21T04:40:43.011Z,100605.80
2019-04-21T04:48:24.140Z,100606.29
2019-04-21T04:50:49.302Z,100605.79
2019-04-21T04:53:15.825Z,100605.80
2019-04-21T04:58:35.554Z,100601.14
2019-04-21T05:00:43.532Z,100603.45
2019-04-21T05:03:18.953Z,100597.96
2019-04-21T05:21:40.539Z,100602.22
2019-04-21T05:23:51.224Z,100598.36
2019-04-21T05:26:14.552Z,100595.38
2019-04-21T05:28:47.353Z,100594.72
2019-04-21T05:31:49.634Z,100599.55
2019-04-21T05:34:17.140Z,100605.39
2019-04-21T05:37:07.224Z,100598.14
2019-04-21T05:39:47.997Z,100595.31
2019-04-21T05:42:10.690Z,100600.40
2019-04-21T05:44:59.834Z,100593.83
2019-04-21T05:47:35.420Z,100590.11
2019-04-21T05:49:55.668Z,100588.83
2019-04-21T05:52:29.567Z,100589.44
2019-04-21T05:55:10.555Z,100594.34
2019-04-21T05:57:33.611Z,100593.25
2019-04-21T06:00:12.383Z,100592.36
2019-04-21T06:02:36.658Z,100590.09
2019-04-21T06:05:25.657Z,100592.19
2019-04-21T06:07:42.711Z,100596.59
2019-04-21T06:10:08.915Z,100595.70
2019-04-21T06:12:43.086Z,100587.72
2019-04-21T06:15:16.649Z,100589.81
2019-04-21T06:17:52.571Z,100583.67
2019-04-21T06:20:15.401Z,100584.98
2019-04-21T06:22:46.758Z,100579.77
2019-04-21T06:25:44.643Z,100583.67
2019-04-21T06:27:51.117Z,100579.55
2019-04-21T06:30:22.379Z,100582.77
2019-04-21T06:36:07.662Z,100583.23
2019-04-21T06:38:19.631Z,100582.27
2019-04-21T06:40:42.563Z,100580.84
2019-04-21T06:43:29.606Z,100581.58
2019-04-21T06:45:48.842Z,100577.50
2019-04-21T06:48:18.585Z,100575.11
2019-04-21T06:50:52.795Z,100571.34
2019-04-21T06:53:21.636Z,100576.63
2019-04-21T06:55:46.772Z,100574.09
2019-04-21T06:58:18.103Z,100574.84
2019-04-21T07:00:46.914Z,100579.50
2019-04-21T07:05:58.954Z,100578.36
2019-04-21T07:08:44.716Z,100576.59
2019-04-21T07:10:59.472Z,100581.61
2019-04-21T07:13:25.371Z,100576.80
2019-04-21T07:15:58.495Z,100574.98
2019-04-21T07:18:34.536Z,100571.63
2019-04-21T07:21:03.166Z,100578.12
2019-04-21T07:23:30.304Z,100583.13
2019-04-21T07:26:02.766Z,100584.57
2019-04-21T07:28:31.945Z,100575.73
2019-04-21T07:31:03.443Z,100572.30
2019-04-21T07:36:01.514Z,100576.28
2019-04-21T07:38:36.606Z,100571.23
2019-04-21T07:41:02.527Z,100575.30
2019-04-21T07:43:34.350Z,100572.16
2019-04-21T07:46:03.976Z,100572.63
2019-04-21T07:48:45.671Z,100574.66
2019-04-21T07:51:31.647Z,100575.25
2019-04-21T07:54:28.711Z,100569.51
2019-04-21T07:56:20.373Z,100567.02
2019-04-21T07:59:02.082Z,100561.59
2019-04-21T08:01:32.191Z,100555.67
2019-04-21T08:04:15.255Z,100559.02
2019-04-21T08:06:40.810Z,100555.19
2019-04-21T08:09:08.974Z,100553.90
2019-04-21T08:11:36.842Z,100556.02
2019-04-21T08:14:13.808Z,100553.61
2019-04-21T08:16:44.909Z,100549.60
2019-04-21T08:19:12.929Z,100548.87
2019-04-21T08:21:53.323Z,100553.82
2019-04-21T08:24:14.510Z,100551.83
2019-04-21T08:27:00.415Z,100538.85
2019-04-21T08:29:28.506Z,100535.51
2019-04-21T08:34:21.476Z,100537.72
2019-04-21T08:37:04.048Z,100529.02
2019-04-21T08:39:22.788Z,100540.25
2019-04-21T08:41:49.621Z,100531.89
2019-04-21T08:44:29.451Z,100526.93
2019-04-21T08:46:59.147Z,100529.50
2019-04-21T08:49:28.129Z,100525.39
2019-04-21T08:52:03.833Z,100519.12
2019-04-21T08:54:28.101Z,100518.34
2019-04-21T08:57:24.363Z,100525.61
2019-04-21T09:00:26.040Z,100510.64
2019-04-21T09:03:01.706Z,100518.20
2019-04-21T09:05:32.584Z,100515.36
2019-04-21T09:07:57.217Z,100513.88
2019-04-21T09:10:33.057Z,100520.66
2019-04-21T09:13:03.166Z,100502.04
2019-04-21T09:15:31.056Z,100510.86
2019-04-21T09:17:57.964Z,100504.11
2019-04-21T09:20:40.179Z,100504.98
2019-04-21T09:23:11.788Z,100496.56
2019-04-21T09:25:44.593Z,100489.83
2019-04-21T09:28:08.057Z,100488.47
2019-04-21T09:30:19.807Z,100479.22
2019-04-21T09:32:53.120Z,100478.44
2019-04-21T09:35:21.901Z,100473.27
2019-04-21T09:37:58.856Z,100468.88
2019-04-21T09:40:30.128Z,100476.57
2019-04-21T09:42:59.289Z,100465.05
2019-04-21T09:45:24.515Z,100463.45
2019-04-21T09:48:01.028Z,100456.58
2019-04-21T09:50:24.762Z,100463.87
2019-04-21T09:52:59.770Z,100453.40
2019-04-21T09:55:32.148Z,100455.09
2019-04-21T09:58:08.729Z,100441.10
2019-04-21T10:00:30.387Z,100438.30
2019-04-21T10:03:06.056Z,100434.89
2019-04-21T10:05:29.771Z,100429.77
2019-04-21T10:08:01.056Z,100432.05
2019-04-21T10:10:30.187Z,100421.78
2019-04-21T10:13:00.616Z,100417.16
2019-04-21T10:15:29.871Z,100420.05
2019-04-21T10:18:02.714Z,100412.61
2019-04-21T10:20:32.912Z,100411.91
2019-04-21T10:23:02.938Z,100406.90
2019-04-21T10:25:32.545Z,100400.20
2019-04-21T10:28:03.323Z,100395.86
2019-04-21T10:30:32.999Z,100396.37
2019-04-21T10:33:02.225Z,100389.86
2019-04-21T10:35:31.470Z,100391.32
2019-04-21T10:38:12.906Z,100391.17
2019-04-21T10:40:35.240Z,100382.47
2019-04-21T10:43:03.911Z,100386.26
2019-04-21T10:45:33.104Z,100380.13
2019-04-21T10:48:03.055Z,100376.59
2019-04-21T10:50:32.411Z,100365.83
2019-04-21T10:53:09.105Z,100366.70
2019-04-21T10:55:54.326Z,100367.40
2019-04-21T10:58:11.818Z,100361.09
2019-04-21T11:00:44.012Z,100350.88
2019-04-21T11:03:31.031Z,100355.89
2019-04-21T11:06:01.047Z,100353.68
2019-04-21T11:08:35.692Z,100351.11
2019-04-21T11:11:01.760Z,100338.14
2019-04-21T11:13:31.026Z,100350.48
2019-04-21T11:16:01.276Z,100334.85
2019-04-21T11:18:31.717Z,100331.83
2019-04-21T11:21:01.041Z,100334.66
2019-04-21T11:23:31.292Z,100342.55
2019-04-21T11:26:00.547Z,100331.20
2019-04-21T11:28:31.233Z,100330.38
2019-04-21T11:31:00.648Z,100336.61
2019-04-21T11:33:31.290Z,100333.78
2019-04-21T11:36:01.447Z,100318.78
2019-04-21T11:39:19.299Z,100316.34
2019-04-21T11:41:36.078Z,100307.10
2019-04-21T11:44:05.480Z,100305.02
2019-04-21T11:46:34.538Z,100305.42
2019-04-21T11:49:04.121Z,100306.39
2019-04-21T11:51:33.642Z,100304.58
2019-04-21T11:54:02.913Z,100295.55
2019-04-21T11:56:32.709Z,100286.11
2019-04-21T11:59:03.755Z,100275.28
2019-04-21T12:01:33.794Z,100282.04
2019-04-21T12:04:03.401Z,100285.80
2019-04-21T12:06:40.918Z,100273.84
2019-04-21T12:09:06.945Z,100276.27
2019-04-21T12:11:37.255Z,100274.83
2019-04-21T12:14:07.998Z,100264.37
2019-04-21T12:16:37.333Z,100266.70
2019-04-21T12:19:07.206Z,100267.77
2019-04-21T12:21:50.530Z,100271.35
2019-04-21T12:24:07.395Z,100263.70
2019-04-21T12:26:37.861Z,100258.88
2019-04-21T12:29:08.072Z,100258.06
2019-04-21T12:31:57.229Z,100256.56
2019-04-21T12:34:28.093Z,100252.50
2019-04-21T12:36:57.395Z,100249.93
2019-04-21T12:39:27.113Z,100247.47
2019-04-21T12:41:56.661Z,100230.89
2019-04-21T12:44:25.858Z,100229.20
2019-04-21T12:46:56.042Z,100228.97
2019-04-21T12:49:25.638Z,100220.23
2019-04-21T12:51:55.564Z,100216.63
2019-04-21T12:54:25.900Z,100222.22
2019-04-21T12:56:55.835Z,100212.53
2019-04-21T12:59:29.689Z,100214.56
2019-04-21T13:01:59.058Z,100193.47
2019-04-21T13:04:29.378Z,100194.38
2019-04-21T13:07:01.488Z,100194.86
2019-04-21T13:09:32.087Z,100191.92
2019-04-21T13:12:01.539Z,100187.06
2019-04-21T13:14:31.581Z,100192.86
2019-04-21T13:17:01.423Z,100174.88
2019-04-21T13:19:31.532Z,100171.59
2019-04-21T13:22:01.620Z,100170.45
2019-04-21T13:24:31.794Z,100168.05
2019-04-21T13:27:03.225Z,100160.77
2019-04-21T13:29:32.294Z,100158.50
2019-04-21T13:32:03.712Z,100147.48
2019-04-21T13:34:33.684Z,100143.20
2019-04-21T13:37:03.503Z,100134.39
2019-04-21T13:40:09.648Z,100142.98
2019-04-21T13:42:25.840Z,100125.47
2019-04-21T13:44:48.816Z,100126.44
2019-04-21T13:47:18.637Z,100123.59
2019-04-21T13:49:47.960Z,100123.72
2019-04-21T13:52:18.597Z,100128.27
2019-04-21T13:54:47.788Z,100110.57
2019-04-21T13:57:17.005Z,100113.27
2019-04-21T13:59:46.431Z,100110.27
2019-04-21T14:02:18.260Z,100097.98
2019-04-21T14:04:49.552Z,100088.59
2019-04-21T14:07:20.478Z,100092.47
2019-04-21T14:09:56.049Z,100093.22
2019-04-21T14:12:21.267Z,100084.38
2019-04-21T14:14:50.418Z,100081.19
2019-04-21T14:17:19.482Z,100087.51
2019-04-21T14:19:48.996Z,100082.83
2019-04-21T14:22:20.107Z,100074.92
2019-04-21T14:24:49.908Z,100072.02
2019-04-21T14:27:20.413Z,100061.80
2019-04-21T14:29:53.424Z,100061.76
2019-04-21T14:32:24.177Z,100056.65
2019-04-21T14:34:54.058Z,100057.61
2019-04-21T14:37:24.722Z,100066.83
2019-04-21T14:40:01.303Z,100056.61
2019-04-21T14:42:26.138Z,100047.27
2019-04-21T14:44:56.826Z,100038.56
2019-04-21T14:47:42.110Z,100045.20
2019-04-21T14:50:39.995Z,100039.53
2019-04-21T14:53:34.012Z,100053.28
2019-04-21T14:56:03.761Z,100034.78
2019-04-21T14:58:33.002Z,100032.89
2019-04-21T15:01:06.010Z,100024.67
2019-04-21T15:03:37.893Z,100029.89
2019-04-21T15:06:07.515Z,100027.65
2019-04-21T15:08:37.414Z,100024.40
2019-04-21T15:11:07.074Z,100023.05
2019-04-21T15:13:37.820Z,100021.11
2019-04-21T15:16:07.133Z,100011.87
2019-04-21T15:18:36.824Z,100011.31
2019-04-21T15:21:07.638Z,100012.08
2019-04-21T15:23:38.074Z,100014.25
2019-04-21T15:26:08.318Z,100010.94
2019-04-21T15:28:39.216Z,100008.79
2019-04-21T15:31:12.654Z,100008.41
2019-04-21T15:33:41.120Z,100009.41
2019-04-21T15:36:11.233Z,100012.70
2019-04-21T15:38:40.578Z,100002.48
2019-04-21T15:41:10.865Z,100001.38
2019-04-21T15:43:40.592Z,99993.53
2019-04-21T15:46:10.961Z,99987.62
2019-04-21T15:48:41.206Z,99990.82
2019-04-21T15:51:11.130Z,99983.87
2019-04-21T15:53:41.778Z,99984.05
2019-04-21T15:56:22.644Z,99988.27
2019-04-21T15:59:01.036Z,99981.52
2019-04-21T16:01:36.477Z,99975.97
2019-04-21T16:04:06.582Z,99975.70
2019-04-21T16:06:37.421Z,99981.93
2019-04-21T16:09:15.024Z,99974.24
2019-04-21T16:11:41.940Z,99972.27
2019-04-21T16:14:11.264Z,99972.02
2019-04-21T16:16:41.214Z,99970.05
2019-04-21T16:19:10.331Z,99970.80
2019-04-21T16:21:42.510Z,99955.02
2019-04-21T16:24:12.048Z,99959.67
2019-04-21T16:26:42.640Z,99955.04
2019-04-21T16:29:13.152Z,99951.99
2019-04-21T16:31:42.736Z,99952.77
2019-04-21T16:34:13.655Z,99946.62
2019-04-21T16:36:45.584Z,99948.41
2019-04-21T16:39:15.585Z,99945.91
2019-04-21T16:41:44.776Z,99943.65
2019-04-21T16:44:14.075Z,99942.83
2019-04-21T16:46:43.468Z,99942.71
2019-04-21T16:49:13.717Z,99942.11
2019-04-21T16:51:44.220Z,99936.03
2019-04-21T16:54:22.038Z,99925.09
2019-04-21T16:57:01.858Z,99938.05
2019-04-21T16:59:40.549Z,99932.69
2019-04-21T17:02:10.405Z,99924.31
2019-04-21T17:04:40.271Z,99923.72
2019-04-21T17:07:09.582Z,99924.09
2019-04-21T17:09:38.957Z,99925.64
2019-04-21T17:12:11.941Z,99925.97
2019-04-21T17:14:53.651Z,99922.95
2019-04-21T17:17:32.437Z,99922.05
2019-04-21T17:19:46.890Z,99917.05
2019-04-21T17:22:13.736Z,99916.61
2019-04-21T17:24:44.262Z,99920.09
2019-04-21T17:27:15.287Z,99914.33
2019-04-21T17:29:46.042Z,99915.48
2019-04-21T17:32:16.436Z,99907.27
2019-04-21T17:34:45.916Z,99918.42
2019-04-21T17:37:15.263Z,99902.28
2019-04-21T17:39:45.084Z,99904.30
2019-04-21T17:42:24.211Z,99907.17
2019-04-21T17:44:45.498Z,99898.81
2019-04-21T17:47:22.509Z,99902.52
2019-04-21T17:49:48.716Z,99894.11
2019-04-21T17:52:41.396Z,99902.16
2019-04-21T17:55:25.055Z,99903.66
2019-04-21T17:58:03.490Z,99898.80
2019-04-21T18:00:57.727Z,99894.68
2019-04-21T18:03:18.498Z,99902.95
2019-04-21T18:05:42.559Z,99905.22
2019-04-21T18:08:14.016Z,99906.11
2019-04-21T18:10:42.246Z,99900.94
2019-04-21T18:13:04.264Z,99906.75
2019-04-21T18:15:40.295Z,99900.83
2019-04-21T18:17:58.941Z,99903.88
2019-04-21T18:20:32.148Z,99904.47
2019-04-21T18:23:39.682Z,99904.53
2019-04-21T18:26:07.722Z,99905.41
2019-04-21T18:28:34.597Z,99909.13
2019-04-21T18:31:07.574Z,99911.05
2019-04-21T18:33:42.246Z,99900.73
2019-04-21T18:36:31.983Z,99896.74
2019-04-21T18:39:18.241Z,99901.41
2019-04-21T18:41:36.535Z,99903.09
